sensor_id;sensor_type;location;lat;lon;timestamp;P1;durP1;ratioP1;P2;durP2;ratioP2
77586;SDS011;66744;49.716;17.158;2023-04-16T00:01:36;5.60;;;4.15;;
77586;SDS011;66744;49.716;17.158;2023-04-16T00:04:38;8.25;;;5.78;;
77586;SDS011;66744;49.716;17.158;2023-04-16T00:07:39;7.55;;;4.57;;
77586;SDS011;66744;49.716;17.158;2023-04-16T00:10:40;9.50;;;6.22;;
77586;SDS011;66744;49.716;17.158;2023-04-16T00:13:42;12.77;;;7.97;;
77586;SDS011;66744;49.716;17.158;2023-04-16T00:16:43;12.82;;;7.70;;
77586;SDS011;66744;49.716;17.158;2023-04-16T00:19:44;7.75;;;5.25;;
77586;SDS011;66744;49.716;17.158;2023-04-16T00:22:45;13.20;;;7.15;;
77586;SDS011;66744;49.716;17.158;2023-04-16T00:25:46;10.15;;;6.82;;
77586;SDS011;66744;49.716;17.158;2023-04-16T00:28:48;8.00;;;4.97;;
77586;SDS011;66744;49.716;17.158;2023-04-16T00:31:49;7.22;;;4.72;;
77586;SDS011;66744;49.716;17.158;2023-04-16T00:34:51;6.35;;;4.75;;
77586;SDS011;66744;49.716;17.158;2023-04-16T00:37:53;8.52;;;5.35;;
77586;SDS011;66744;49.716;17.158;2023-04-16T00:40:54;5.55;;;4.03;;
77586;SDS011;66744;49.716;17.158;2023-04-16T00:43:58;9.00;;;6.18;;
77586;SDS011;66744;49.716;17.158;2023-04-16T00:46:59;9.73;;;5.75;;
77586;SDS011;66744;49.716;17.158;2023-04-16T00:50:02;8.65;;;6.03;;
77586;SDS011;66744;49.716;17.158;2023-04-16T00:53:04;8.60;;;5.82;;
77586;SDS011;66744;49.716;17.158;2023-04-16T00:56:06;10.32;;;6.32;;
77586;SDS011;66744;49.716;17.158;2023-04-16T00:59:07;7.38;;;4.95;;
77586;SDS011;66744;49.716;17.158;2023-04-16T01:02:09;8.32;;;5.25;;
77586;SDS011;66744;49.716;17.158;2023-04-16T01:05:10;7.93;;;5.50;;
77586;SDS011;66744;49.716;17.158;2023-04-16T01:08:18;7.88;;;6.07;;
77586;SDS011;66744;49.716;17.158;2023-04-16T01:11:20;10.43;;;6.85;;
77586;SDS011;66744;49.716;17.158;2023-04-16T01:14:22;8.05;;;5.55;;
77586;SDS011;66744;49.716;17.158;2023-04-16T01:17:24;17.42;;;8.63;;
77586;SDS011;66744;49.716;17.158;2023-04-16T01:20:25;6.95;;;5.25;;
77586;SDS011;66744;49.716;17.158;2023-04-16T01:23:26;11.20;;;7.22;;
77586;SDS011;66744;49.716;17.158;2023-04-16T01:26:28;7.93;;;5.63;;
77586;SDS011;66744;49.716;17.158;2023-04-16T01:29:29;8.57;;;6.57;;
77586;SDS011;66744;49.716;17.158;2023-04-16T01:32:32;11.43;;;7.05;;
77586;SDS011;66744;49.716;17.158;2023-04-16T01:35:33;13.90;;;7.63;;
77586;SDS011;66744;49.716;17.158;2023-04-16T01:38:34;9.13;;;5.30;;
77586;SDS011;66744;49.716;17.158;2023-04-16T01:41:36;12.68;;;7.40;;
77586;SDS011;66744;49.716;17.158;2023-04-16T01:44:37;13.70;;;6.72;;
77586;SDS011;66744;49.716;17.158;2023-04-16T01:47:38;17.92;;;8.57;;
77586;SDS011;66744;49.716;17.158;2023-04-16T01:50:40;28.10;;;10.80;;
77586;SDS011;66744;49.716;17.158;2023-04-16T01:53:41;26.33;;;9.95;;
77586;SDS011;66744;49.716;17.158;2023-04-16T01:56:42;16.02;;;8.57;;
77586;SDS011;66744;49.716;17.158;2023-04-16T01:59:44;13.38;;;7.85;;
77586;SDS011;66744;49.716;17.158;2023-04-16T02:02:45;13.52;;;7.75;;
77586;SDS011;66744;49.716;17.158;2023-04-16T02:05:52;10.48;;;7.22;;
77586;SDS011;66744;49.716;17.158;2023-04-16T02:08:53;15.45;;;8.52;;
77586;SDS011;66744;49.716;17.158;2023-04-16T02:11:54;18.52;;;10.90;;
77586;SDS011;66744;49.716;17.158;2023-04-16T02:14:55;32.05;;;15.73;;
77586;SDS011;66744;49.716;17.158;2023-04-16T02:17:59;26.13;;;13.38;;
77586;SDS011;66744;49.716;17.158;2023-04-16T02:21:00;28.75;;;14.35;;
77586;SDS011;66744;49.716;17.158;2023-04-16T02:24:02;12.38;;;7.68;;
77586;SDS011;66744;49.716;17.158;2023-04-16T02:27:05;29.15;;;14.13;;
77586;SDS011;66744;49.716;17.158;2023-04-16T02:30:06;20.17;;;11.82;;
77586;SDS011;66744;49.716;17.158;2023-04-16T02:33:10;25.52;;;12.15;;
77586;SDS011;66744;49.716;17.158;2023-04-16T02:36:14;15.00;;;9.60;;
77586;SDS011;66744;49.716;17.158;2023-04-16T02:39:15;8.02;;;6.30;;
77586;SDS011;66744;49.716;17.158;2023-04-16T02:42:16;13.50;;;8.52;;
77586;SDS011;66744;49.716;17.158;2023-04-16T02:45:17;11.43;;;7.85;;
77586;SDS011;66744;49.716;17.158;2023-04-16T02:48:19;15.50;;;8.90;;
77586;SDS011;66744;49.716;17.158;2023-04-16T02:51:21;15.43;;;8.38;;
77586;SDS011;66744;49.716;17.158;2023-04-16T02:54:22;14.40;;;6.93;;
77586;SDS011;66744;49.716;17.158;2023-04-16T02:57:23;17.23;;;8.70;;
77586;SDS011;66744;49.716;17.158;2023-04-16T03:00:24;12.35;;;8.35;;
77586;SDS011;66744;49.716;17.158;2023-04-16T03:03:26;11.45;;;6.93;;
77586;SDS011;66744;49.716;17.158;2023-04-16T03:06:27;13.98;;;7.72;;
77586;SDS011;66744;49.716;17.158;2023-04-16T03:09:28;10.50;;;6.55;;
77586;SDS011;66744;49.716;17.158;2023-04-16T03:12:29;8.00;;;6.32;;
77586;SDS011;66744;49.716;17.158;2023-04-16T03:15:30;7.25;;;5.45;;
77586;SDS011;66744;49.716;17.158;2023-04-16T03:18:32;8.85;;;5.78;;
77586;SDS011;66744;49.716;17.158;2023-04-16T03:21:33;9.65;;;6.43;;
77586;SDS011;66744;49.716;17.158;2023-04-16T03:24:34;15.07;;;8.25;;
77586;SDS011;66744;49.716;17.158;2023-04-16T03:27:35;8.65;;;5.90;;
77586;SDS011;66744;49.716;17.158;2023-04-16T03:30:36;11.52;;;6.15;;
77586;SDS011;66744;49.716;17.158;2023-04-16T03:33:39;18.83;;;9.55;;
77586;SDS011;66744;49.716;17.158;2023-04-16T03:36:40;9.48;;;5.80;;
77586;SDS011;66744;49.716;17.158;2023-04-16T03:39:42;8.73;;;6.07;;
77586;SDS011;66744;49.716;17.158;2023-04-16T03:42:45;10.20;;;6.55;;
77586;SDS011;66744;49.716;17.158;2023-04-16T03:45:46;22.30;;;9.25;;
77586;SDS011;66744;49.716;17.158;2023-04-16T03:48:47;10.52;;;6.50;;
77586;SDS011;66744;49.716;17.158;2023-04-16T03:51:49;9.60;;;6.07;;
77586;SDS011;66744;49.716;17.158;2023-04-16T03:54:51;8.55;;;6.10;;
77586;SDS011;66744;49.716;17.158;2023-04-16T03:58:00;11.75;;;6.65;;
77586;SDS011;66744;49.716;17.158;2023-04-16T04:01:03;11.23;;;7.00;;
77586;SDS011;66744;49.716;17.158;2023-04-16T04:04:05;8.07;;;6.25;;
77586;SDS011;66744;49.716;17.158;2023-04-16T04:07:06;13.10;;;7.22;;
77586;SDS011;66744;49.716;17.158;2023-04-16T04:10:08;20.92;;;8.88;;
77586;SDS011;66744;49.716;17.158;2023-04-16T04:13:13;10.90;;;6.53;;
77586;SDS011;66744;49.716;17.158;2023-04-16T04:16:14;32.33;;;9.70;;
77586;SDS011;66744;49.716;17.158;2023-04-16T04:19:17;26.27;;;9.55;;
77586;SDS011;66744;49.716;17.158;2023-04-16T04:22:18;134.05;;;19.40;;
77586;SDS011;66744;49.716;17.158;2023-04-16T04:25:19;112.72;;;13.70;;
77586;SDS011;66744;49.716;17.158;2023-04-16T04:28:21;42.88;;;9.00;;
77586;SDS011;66744;49.716;17.158;2023-04-16T04:31:23;87.43;;;11.75;;
77586;SDS011;66744;49.716;17.158;2023-04-16T04:34:25;28.27;;;7.00;;
77586;SDS011;66744;49.716;17.158;2023-04-16T04:37:29;81.97;;;16.13;;
77586;SDS011;66744;49.716;17.158;2023-04-16T04:40:31;72.15;;;13.52;;
77586;SDS011;66744;49.716;17.158;2023-04-16T04:43:32;50.22;;;10.02;;
77586;SDS011;66744;49.716;17.158;2023-04-16T04:46:34;43.20;;;8.80;;
77586;SDS011;66744;49.716;17.158;2023-04-16T04:49:36;23.92;;;8.30;;
77586;SDS011;66744;49.716;17.158;2023-04-16T04:52:37;64.07;;;10.20;;
77586;SDS011;66744;49.716;17.158;2023-04-16T04:55:39;19.77;;;8.35;;
77586;SDS011;66744;49.716;17.158;2023-04-16T04:58:40;11.55;;;6.50;;
77586;SDS011;66744;49.716;17.158;2023-04-16T05:01:41;13.45;;;7.28;;
77586;SDS011;66744;49.716;17.158;2023-04-16T05:04:43;10.45;;;6.32;;
77586;SDS011;66744;49.716;17.158;2023-04-16T05:07:44;13.68;;;7.65;;
77586;SDS011;66744;49.716;17.158;2023-04-16T05:10:45;9.65;;;5.90;;
77586;SDS011;66744;49.716;17.158;2023-04-16T05:13:46;9.55;;;5.55;;
77586;SDS011;66744;49.716;17.158;2023-04-16T05:16:48;10.10;;;6.80;;
77586;SDS011;66744;49.716;17.158;2023-04-16T05:19:49;8.80;;;5.35;;
77586;SDS011;66744;49.716;17.158;2023-04-16T05:22:52;14.27;;;8.13;;
77586;SDS011;66744;49.716;17.158;2023-04-16T05:25:55;10.25;;;6.78;;
77586;SDS011;66744;49.716;17.158;2023-04-16T05:28:56;13.43;;;8.30;;
77586;SDS011;66744;49.716;17.158;2023-04-16T05:31:58;11.20;;;6.50;;
77586;SDS011;66744;49.716;17.158;2023-04-16T05:35:01;10.82;;;7.22;;
77586;SDS011;66744;49.716;17.158;2023-04-16T05:38:03;11.07;;;7.57;;
77586;SDS011;66744;49.716;17.158;2023-04-16T05:41:05;11.45;;;7.65;;
77586;SDS011;66744;49.716;17.158;2023-04-16T05:44:15;14.68;;;9.00;;
77586;SDS011;66744;49.716;17.158;2023-04-16T05:47:16;16.23;;;10.60;;
77586;SDS011;66744;49.716;17.158;2023-04-16T05:50:18;17.92;;;8.80;;
77586;SDS011;66744;49.716;17.158;2023-04-16T05:53:20;24.95;;;13.50;;
77586;SDS011;66744;49.716;17.158;2023-04-16T05:56:21;15.45;;;9.32;;
77586;SDS011;66744;49.716;17.158;2023-04-16T05:59:23;16.25;;;9.70;;
77586;SDS011;66744;49.716;17.158;2023-04-16T06:02:24;18.00;;;9.75;;
77586;SDS011;66744;49.716;17.158;2023-04-16T06:05:29;13.02;;;9.23;;
77586;SDS011;66744;49.716;17.158;2023-04-16T06:08:31;15.70;;;10.85;;
77586;SDS011;66744;49.716;17.158;2023-04-16T06:11:40;15.00;;;9.68;;
77586;SDS011;66744;49.716;17.158;2023-04-16T06:14:41;12.90;;;8.57;;
77586;SDS011;66744;49.716;17.158;2023-04-16T06:17:48;16.23;;;11.32;;
77586;SDS011;66744;49.716;17.158;2023-04-16T06:20:55;15.45;;;9.50;;
77586;SDS011;66744;49.716;17.158;2023-04-16T06:24:01;17.75;;;10.45;;
77586;SDS011;66744;49.716;17.158;2023-04-16T06:27:02;20.48;;;13.13;;
77586;SDS011;66744;49.716;17.158;2023-04-16T06:30:05;16.75;;;11.60;;
77586;SDS011;66744;49.716;17.158;2023-04-16T06:33:13;16.48;;;12.45;;
77586;SDS011;66744;49.716;17.158;2023-04-16T06:36:14;16.45;;;11.40;;
77586;SDS011;66744;49.716;17.158;2023-04-16T06:39:19;17.70;;;12.30;;
77586;SDS011;66744;49.716;17.158;2023-04-16T06:42:21;11.60;;;8.02;;
77586;SDS011;66744;49.716;17.158;2023-04-16T06:45:23;13.43;;;10.02;;
77586;SDS011;66744;49.716;17.158;2023-04-16T06:48:25;12.85;;;8.63;;
77586;SDS011;66744;49.716;17.158;2023-04-16T06:51:29;23.02;;;13.60;;
77586;SDS011;66744;49.716;17.158;2023-04-16T06:54:36;13.02;;;10.43;;
77586;SDS011;66744;49.716;17.158;2023-04-16T06:57:37;12.18;;;9.95;;
77586;SDS011;66744;49.716;17.158;2023-04-16T07:00:44;10.32;;;8.95;;
77586;SDS011;66744;49.716;17.158;2023-04-16T07:03:45;13.77;;;12.35;;
77586;SDS011;66744;49.716;17.158;2023-04-16T07:06:52;16.15;;;12.95;;
77586;SDS011;66744;49.716;17.158;2023-04-16T07:09:53;13.35;;;10.35;;
77586;SDS011;66744;49.716;17.158;2023-04-16T07:12:57;13.77;;;11.27;;
77586;SDS011;66744;49.716;17.158;2023-04-16T07:15:58;15.57;;;11.75;;
77586;SDS011;66744;49.716;17.158;2023-04-16T07:19:00;15.88;;;12.07;;
77586;SDS011;66744;49.716;17.158;2023-04-16T07:22:01;15.43;;;11.90;;
77586;SDS011;66744;49.716;17.158;2023-04-16T07:25:03;13.70;;;10.80;;
77586;SDS011;66744;49.716;17.158;2023-04-16T07:28:05;15.55;;;12.32;;
77586;SDS011;66744;49.716;17.158;2023-04-16T07:31:06;13.85;;;11.57;;
77586;SDS011;66744;49.716;17.158;2023-04-16T07:34:09;15.85;;;11.77;;
77586;SDS011;66744;49.716;17.158;2023-04-16T07:37:11;14.93;;;12.57;;
77586;SDS011;66744;49.716;17.158;2023-04-16T07:40:12;15.57;;;13.48;;
77586;SDS011;66744;49.716;17.158;2023-04-16T07:43:14;14.55;;;11.95;;
77586;SDS011;66744;49.716;17.158;2023-04-16T07:46:16;14.98;;;11.90;;
77586;SDS011;66744;49.716;17.158;2023-04-16T07:49:17;13.93;;;11.20;;
77586;SDS011;66744;49.716;17.158;2023-04-16T07:52:21;15.88;;;13.20;;
77586;SDS011;66744;49.716;17.158;2023-04-16T07:55:23;13.10;;;11.43;;
77586;SDS011;66744;49.716;17.158;2023-04-16T07:58:24;13.75;;;11.43;;
77586;SDS011;66744;49.716;17.158;2023-04-16T08:01:25;13.25;;;10.65;;
77586;SDS011;66744;49.716;17.158;2023-04-16T08:04:27;9.77;;;8.57;;
77586;SDS011;66744;49.716;17.158;2023-04-16T08:07:28;10.30;;;9.20;;
77586;SDS011;66744;49.716;17.158;2023-04-16T08:10:29;10.18;;;8.32;;
77586;SDS011;66744;49.716;17.158;2023-04-16T08:13:30;11.90;;;9.23;;
77586;SDS011;66744;49.716;17.158;2023-04-16T08:16:31;11.85;;;8.50;;
77586;SDS011;66744;49.716;17.158;2023-04-16T08:19:33;9.02;;;6.95;;
77586;SDS011;66744;49.716;17.158;2023-04-16T08:22:43;9.13;;;7.35;;
77586;SDS011;66744;49.716;17.158;2023-04-16T08:25:46;8.25;;;7.15;;
77586;SDS011;66744;49.716;17.158;2023-04-16T08:28:49;6.63;;;5.68;;
77586;SDS011;66744;49.716;17.158;2023-04-16T08:31:53;7.43;;;6.05;;
77586;SDS011;66744;49.716;17.158;2023-04-16T08:34:55;6.50;;;5.35;;
77586;SDS011;66744;49.716;17.158;2023-04-16T08:37:57;7.15;;;6.00;;
77586;SDS011;66744;49.716;17.158;2023-04-16T08:41:04;7.28;;;5.88;;
77586;SDS011;66744;49.716;17.158;2023-04-16T08:44:07;6.90;;;5.68;;
77586;SDS011;66744;49.716;17.158;2023-04-16T08:47:09;6.25;;;5.30;;
77586;SDS011;66744;49.716;17.158;2023-04-16T08:50:16;6.82;;;5.10;;
77586;SDS011;66744;49.716;17.158;2023-04-16T08:53:25;5.80;;;4.75;;
77586;SDS011;66744;49.716;17.158;2023-04-16T08:56:35;5.32;;;4.15;;
77586;SDS011;66744;49.716;17.158;2023-04-16T08:59:37;6.40;;;4.32;;
77586;SDS011;66744;49.716;17.158;2023-04-16T09:02:40;4.53;;;4.10;;
77586;SDS011;66744;49.716;17.158;2023-04-16T09:05:42;4.72;;;3.75;;
77586;SDS011;66744;49.716;17.158;2023-04-16T09:08:45;3.75;;;2.90;;
77586;SDS011;66744;49.716;17.158;2023-04-16T09:11:51;3.92;;;3.47;;
77586;SDS011;66744;49.716;17.158;2023-04-16T09:14:53;5.18;;;3.80;;
77586;SDS011;66744;49.716;17.158;2023-04-16T09:17:56;4.30;;;3.50;;
77586;SDS011;66744;49.716;17.158;2023-04-16T09:20:57;3.92;;;3.53;;
77586;SDS011;66744;49.716;17.158;2023-04-16T09:23:59;4.28;;;3.55;;
77586;SDS011;66744;49.716;17.158;2023-04-16T09:27:01;2.92;;;2.67;;
77586;SDS011;66744;49.716;17.158;2023-04-16T09:33:23;4.10;;;3.70;;
77586;SDS011;66744;49.716;17.158;2023-04-16T09:36:24;4.07;;;3.17;;
77586;SDS011;66744;49.716;17.158;2023-04-16T09:39:26;3.88;;;3.33;;
77586;SDS011;66744;49.716;17.158;2023-04-16T09:42:28;3.10;;;2.80;;
77586;SDS011;66744;49.716;17.158;2023-04-16T09:45:31;3.28;;;2.78;;
77586;SDS011;66744;49.716;17.158;2023-04-16T09:48:33;5.32;;;3.67;;
77586;SDS011;66744;49.716;17.158;2023-04-16T09:51:41;3.00;;;2.70;;
77586;SDS011;66744;49.716;17.158;2023-04-16T09:54:47;3.60;;;3.10;;
77586;SDS011;66744;49.716;17.158;2023-04-16T09:57:59;3.35;;;3.05;;
77586;SDS011;66744;49.716;17.158;2023-04-16T10:01:01;3.55;;;3.15;;
77586;SDS011;66744;49.716;17.158;2023-04-16T10:04:03;4.15;;;3.25;;
77586;SDS011;66744;49.716;17.158;2023-04-16T10:07:06;3.97;;;2.88;;
77586;SDS011;66744;49.716;17.158;2023-04-16T10:10:08;2.30;;;2.10;;
77586;SDS011;66744;49.716;17.158;2023-04-16T10:13:10;3.15;;;2.47;;
77586;SDS011;66744;49.716;17.158;2023-04-16T10:16:12;2.30;;;2.05;;
77586;SDS011;66744;49.716;17.158;2023-04-16T10:19:13;2.80;;;2.28;;
77586;SDS011;66744;49.716;17.158;2023-04-16T10:22:15;3.03;;;2.30;;
77586;SDS011;66744;49.716;17.158;2023-04-16T10:25:19;3.00;;;2.70;;
77586;SDS011;66744;49.716;17.158;2023-04-16T10:28:21;2.75;;;2.30;;
77586;SDS011;66744;49.716;17.158;2023-04-16T10:31:24;1.90;;;1.80;;
77586;SDS011;66744;49.716;17.158;2023-04-16T10:34:26;3.47;;;2.95;;
77586;SDS011;66744;49.716;17.158;2023-04-16T10:37:29;2.78;;;2.53;;
77586;SDS011;66744;49.716;17.158;2023-04-16T10:40:31;3.47;;;2.90;;
77586;SDS011;66744;49.716;17.158;2023-04-16T10:43:37;1.88;;;1.73;;
77586;SDS011;66744;49.716;17.158;2023-04-16T10:46:47;2.83;;;1.83;;
77586;SDS011;66744;49.716;17.158;2023-04-16T10:49:51;3.15;;;2.50;;
77586;SDS011;66744;49.716;17.158;2023-04-16T10:56:25;3.00;;;2.70;;
77586;SDS011;66744;49.716;17.158;2023-04-16T10:59:37;3.42;;;2.70;;
77586;SDS011;66744;49.716;17.158;2023-04-16T11:02:39;2.85;;;2.20;;
77586;SDS011;66744;49.716;17.158;2023-04-16T11:05:44;3.05;;;2.30;;
77586;SDS011;66744;49.716;17.158;2023-04-16T11:08:52;3.42;;;2.97;;
77586;SDS011;66744;49.716;17.158;2023-04-16T11:11:53;2.80;;;2.60;;
77586;SDS011;66744;49.716;17.158;2023-04-16T11:14:59;2.67;;;2.47;;
77586;SDS011;66744;49.716;17.158;2023-04-16T11:18:07;3.30;;;3.00;;
77586;SDS011;66744;49.716;17.158;2023-04-16T11:21:10;2.67;;;2.35;;
77586;SDS011;66744;49.716;17.158;2023-04-16T11:24:12;3.38;;;2.35;;
77586;SDS011;66744;49.716;17.158;2023-04-16T11:27:13;3.45;;;2.58;;
77586;SDS011;66744;49.716;17.158;2023-04-16T11:30:16;2.42;;;1.95;;
77586;SDS011;66744;49.716;17.158;2023-04-16T11:33:18;2.38;;;1.88;;
77586;SDS011;66744;49.716;17.158;2023-04-16T11:36:21;2.35;;;2.15;;
77586;SDS011;66744;49.716;17.158;2023-04-16T11:39:23;2.60;;;2.10;;
77586;SDS011;66744;49.716;17.158;2023-04-16T11:42:27;2.33;;;1.90;;
77586;SDS011;66744;49.716;17.158;2023-04-16T11:45:29;1.90;;;1.58;;
77586;SDS011;66744;49.716;17.158;2023-04-16T11:48:49;2.60;;;2.25;;
77586;SDS011;66744;49.716;17.158;2023-04-16T11:51:52;1.85;;;1.63;;
77586;SDS011;66744;49.716;17.158;2023-04-16T11:55:03;1.98;;;1.77;;
77586;SDS011;66744;49.716;17.158;2023-04-16T11:58:14;1.98;;;1.60;;
77586;SDS011;66744;49.716;17.158;2023-04-16T12:01:20;2.20;;;2.00;;
77586;SDS011;66744;49.716;17.158;2023-04-16T12:04:22;2.38;;;1.70;;
77586;SDS011;66744;49.716;17.158;2023-04-16T12:07:24;2.15;;;1.83;;
77586;SDS011;66744;49.716;17.158;2023-04-16T12:10:26;1.92;;;1.80;;
77586;SDS011;66744;49.716;17.158;2023-04-16T12:13:28;2.92;;;2.08;;
77586;SDS011;66744;49.716;17.158;2023-04-16T12:16:30;2.67;;;2.00;;
77586;SDS011;66744;49.716;17.158;2023-04-16T12:19:31;1.45;;;1.33;;
77586;SDS011;66744;49.716;17.158;2023-04-16T12:22:33;3.45;;;2.42;;
77586;SDS011;66744;49.716;17.158;2023-04-16T12:25:41;2.38;;;2.00;;
77586;SDS011;66744;49.716;17.158;2023-04-16T12:28:42;4.75;;;3.72;;
77586;SDS011;66744;49.716;17.158;2023-04-16T12:31:47;2.50;;;2.00;;
77586;SDS011;66744;49.716;17.158;2023-04-16T12:34:50;2.10;;;1.73;;
77586;SDS011;66744;49.716;17.158;2023-04-16T12:37:52;2.45;;;1.65;;
77586;SDS011;66744;49.716;17.158;2023-04-16T12:40:54;2.03;;;1.70;;
77586;SDS011;66744;49.716;17.158;2023-04-16T12:44:06;2.00;;;1.40;;
77586;SDS011;66744;49.716;17.158;2023-04-16T12:47:12;4.53;;;2.05;;
77586;SDS011;66744;49.716;17.158;2023-04-16T12:50:13;2.83;;;1.55;;
77586;SDS011;66744;49.716;17.158;2023-04-16T12:53:14;1.92;;;1.55;;
77586;SDS011;66744;49.716;17.158;2023-04-16T12:56:16;1.80;;;1.33;;
77586;SDS011;66744;49.716;17.158;2023-04-16T12:59:17;1.98;;;1.70;;
77586;SDS011;66744;49.716;17.158;2023-04-16T13:02:18;1.90;;;1.70;;
77586;SDS011;66744;49.716;17.158;2023-04-16T13:05:19;2.70;;;1.52;;
77586;SDS011;66744;49.716;17.158;2023-04-16T13:08:20;2.53;;;2.00;;
77586;SDS011;66744;49.716;17.158;2023-04-16T13:11:22;2.47;;;1.60;;
77586;SDS011;66744;49.716;17.158;2023-04-16T13:14:23;3.42;;;2.22;;
77586;SDS011;66744;49.716;17.158;2023-04-16T13:17:25;3.42;;;2.20;;
77586;SDS011;66744;49.716;17.158;2023-04-16T13:20:27;4.05;;;2.55;;
77586;SDS011;66744;49.716;17.158;2023-04-16T13:23:28;3.05;;;2.30;;
77586;SDS011;66744;49.716;17.158;2023-04-16T13:26:29;3.50;;;2.22;;
77586;SDS011;66744;49.716;17.158;2023-04-16T13:29:31;3.08;;;2.67;;
77586;SDS011;66744;49.716;17.158;2023-04-16T13:32:32;5.05;;;3.38;;
77586;SDS011;66744;49.716;17.158;2023-04-16T13:35:37;4.18;;;3.45;;
77586;SDS011;66744;49.716;17.158;2023-04-16T13:38:39;3.90;;;3.15;;
77586;SDS011;66744;49.716;17.158;2023-04-16T13:41:43;4.43;;;3.25;;
77586;SDS011;66744;49.716;17.158;2023-04-16T13:44:44;4.22;;;3.30;;
77586;SDS011;66744;49.716;17.158;2023-04-16T13:47:48;4.68;;;3.25;;
77586;SDS011;66744;49.716;17.158;2023-04-16T13:50:50;5.07;;;4.10;;
77586;SDS011;66744;49.716;17.158;2023-04-16T13:53:52;5.47;;;4.13;;
77586;SDS011;66744;49.716;17.158;2023-04-16T13:56:54;4.63;;;3.83;;
77586;SDS011;66744;49.716;17.158;2023-04-16T13:59:56;5.20;;;3.45;;
77586;SDS011;66744;49.716;17.158;2023-04-16T14:02:57;6.40;;;4.20;;
77586;SDS011;66744;49.716;17.158;2023-04-16T14:05:58;5.55;;;4.13;;
77586;SDS011;66744;49.716;17.158;2023-04-16T14:09:00;5.07;;;3.70;;
77586;SDS011;66744;49.716;17.158;2023-04-16T14:12:01;5.55;;;4.13;;
77586;SDS011;66744;49.716;17.158;2023-04-16T14:15:03;5.63;;;4.47;;
77586;SDS011;66744;49.716;17.158;2023-04-16T14:18:09;5.60;;;4.18;;
77586;SDS011;66744;49.716;17.158;2023-04-16T14:21:11;5.50;;;4.72;;
77586;SDS011;66744;49.716;17.158;2023-04-16T14:24:13;5.22;;;4.32;;
77586;SDS011;66744;49.716;17.158;2023-04-16T14:27:14;5.03;;;3.92;;
77586;SDS011;66744;49.716;17.158;2023-04-16T14:30:16;4.75;;;4.05;;
77586;SDS011;66744;49.716;17.158;2023-04-16T14:33:17;4.50;;;4.10;;
77586;SDS011;66744;49.716;17.158;2023-04-16T14:36:19;5.45;;;4.38;;
77586;SDS011;66744;49.716;17.158;2023-04-16T14:39:20;4.72;;;4.22;;
77586;SDS011;66744;49.716;17.158;2023-04-16T14:42:23;6.18;;;5.53;;
77586;SDS011;66744;49.716;17.158;2023-04-16T14:45:24;6.25;;;4.72;;
77586;SDS011;66744;49.716;17.158;2023-04-16T14:48:28;5.68;;;4.07;;
77586;SDS011;66744;49.716;17.158;2023-04-16T14:51:32;5.05;;;4.25;;
77586;SDS011;66744;49.716;17.158;2023-04-16T14:54:33;4.65;;;4.18;;
77586;SDS011;66744;49.716;17.158;2023-04-16T14:57:34;5.13;;;4.28;;
77586;SDS011;66744;49.716;17.158;2023-04-16T15:00:36;5.53;;;3.70;;
77586;SDS011;66744;49.716;17.158;2023-04-16T15:03:37;3.85;;;3.35;;
77586;SDS011;66744;49.716;17.158;2023-04-16T15:06:38;3.50;;;2.95;;
77586;SDS011;66744;49.716;17.158;2023-04-16T15:09:40;3.60;;;3.13;;
77586;SDS011;66744;49.716;17.158;2023-04-16T15:12:41;3.95;;;3.20;;
77586;SDS011;66744;49.716;17.158;2023-04-16T15:15:42;4.90;;;3.40;;
77586;SDS011;66744;49.716;17.158;2023-04-16T15:22:12;5.20;;;3.40;;
77586;SDS011;66744;49.716;17.158;2023-04-16T15:25:15;3.95;;;3.20;;
77586;SDS011;66744;49.716;17.158;2023-04-16T15:28:17;4.75;;;3.42;;
77586;SDS011;66744;49.716;17.158;2023-04-16T15:31:18;3.38;;;3.08;;
77586;SDS011;66744;49.716;17.158;2023-04-16T15:34:20;4.18;;;3.75;;
77586;SDS011;66744;49.716;17.158;2023-04-16T15:37:22;4.28;;;3.28;;
77586;SDS011;66744;49.716;17.158;2023-04-16T15:40:24;3.60;;;3.10;;
77586;SDS011;66744;49.716;17.158;2023-04-16T15:43:26;6.15;;;4.85;;
77586;SDS011;66744;49.716;17.158;2023-04-16T15:46:29;5.30;;;4.80;;
77586;SDS011;66744;49.716;17.158;2023-04-16T15:49:30;4.88;;;3.33;;
77586;SDS011;66744;49.716;17.158;2023-04-16T15:52:34;6.30;;;4.07;;
77586;SDS011;66744;49.716;17.158;2023-04-16T15:55:36;5.03;;;3.95;;
77586;SDS011;66744;49.716;17.158;2023-04-16T15:58:37;16.10;;;12.60;;
77586;SDS011;66744;49.716;17.158;2023-04-16T16:01:38;4.63;;;3.85;;
77586;SDS011;66744;49.716;17.158;2023-04-16T16:04:41;4.03;;;3.63;;
77586;SDS011;66744;49.716;17.158;2023-04-16T16:07:45;5.88;;;3.83;;
77586;SDS011;66744;49.716;17.158;2023-04-16T16:10:47;6.82;;;4.50;;
77586;SDS011;66744;49.716;17.158;2023-04-16T16:13:49;5.35;;;3.63;;
77586;SDS011;66744;49.716;17.158;2023-04-16T16:16:50;4.40;;;3.80;;
77586;SDS011;66744;49.716;17.158;2023-04-16T16:19:53;6.00;;;3.90;;
77586;SDS011;66744;49.716;17.158;2023-04-16T16:22:56;4.43;;;3.75;;
77586;SDS011;66744;49.716;17.158;2023-04-16T16:25:57;8.02;;;4.22;;
77586;SDS011;66744;49.716;17.158;2023-04-16T16:28:59;6.80;;;4.65;;
77586;SDS011;66744;49.716;17.158;2023-04-16T16:32:01;4.82;;;3.90;;
77586;SDS011;66744;49.716;17.158;2023-04-16T16:35:02;5.18;;;4.00;;
77586;SDS011;66744;49.716;17.158;2023-04-16T16:38:04;6.60;;;4.55;;
77586;SDS011;66744;49.716;17.158;2023-04-16T16:41:06;7.82;;;6.07;;
77586;SDS011;66744;49.716;17.158;2023-04-16T16:44:07;12.20;;;10.43;;
77586;SDS011;66744;49.716;17.158;2023-04-16T16:47:08;10.27;;;8.27;;
77586;SDS011;66744;49.716;17.158;2023-04-16T16:50:10;9.90;;;8.15;;
77586;SDS011;66744;49.716;17.158;2023-04-16T16:53:11;8.20;;;5.80;;
77586;SDS011;66744;49.716;17.158;2023-04-16T16:56:13;12.40;;;8.70;;
77586;SDS011;66744;49.716;17.158;2023-04-16T16:59:15;7.75;;;6.63;;
77586;SDS011;66744;49.716;17.158;2023-04-16T17:02:17;5.97;;;5.00;;
77586;SDS011;66744;49.716;17.158;2023-04-16T17:05:18;7.22;;;5.93;;
77586;SDS011;66744;49.716;17.158;2023-04-16T17:08:20;5.47;;;4.20;;
77586;SDS011;66744;49.716;17.158;2023-04-16T17:11:21;5.00;;;3.97;;
77586;SDS011;66744;49.716;17.158;2023-04-16T17:14:23;4.32;;;3.65;;
77586;SDS011;66744;49.716;17.158;2023-04-16T17:17:25;3.58;;;3.28;;
77586;SDS011;66744;49.716;17.158;2023-04-16T17:20:27;4.18;;;3.75;;
77586;SDS011;66744;49.716;17.158;2023-04-16T17:23:29;5.20;;;4.22;;
77586;SDS011;66744;49.716;17.158;2023-04-16T17:26:32;6.15;;;3.83;;
77586;SDS011;66744;49.716;17.158;2023-04-16T17:29:33;4.95;;;3.90;;
77586;SDS011;66744;49.716;17.158;2023-04-16T17:32:34;4.93;;;3.47;;
77586;SDS011;66744;49.716;17.158;2023-04-16T17:35:38;3.95;;;3.42;;
77586;SDS011;66744;49.716;17.158;2023-04-16T17:38:40;3.80;;;3.30;;
77586;SDS011;66744;49.716;17.158;2023-04-16T17:41:41;4.60;;;3.40;;
77586;SDS011;66744;49.716;17.158;2023-04-16T17:44:43;4.55;;;3.67;;
77586;SDS011;66744;49.716;17.158;2023-04-16T17:47:44;5.78;;;3.83;;
77586;SDS011;66744;49.716;17.158;2023-04-16T17:50:45;5.22;;;3.83;;
77586;SDS011;66744;49.716;17.158;2023-04-16T17:53:48;4.90;;;4.00;;
77586;SDS011;66744;49.716;17.158;2023-04-16T17:56:50;5.88;;;4.47;;
77586;SDS011;66744;49.716;17.158;2023-04-16T17:59:51;6.20;;;4.13;;
77586;SDS011;66744;49.716;17.158;2023-04-16T18:02:55;5.38;;;4.15;;
77586;SDS011;66744;49.716;17.158;2023-04-16T18:05:58;5.07;;;3.80;;